createdAt,value
2022-08-18T00:01:06.243Z,56.08
2022-08-18T00:03:53.270Z,54.98
2022-08-18T00:06:20.416Z,53.86
2022-08-18T00:08:47.187Z,53.45
2022-08-18T00:11:13.939Z,53.09
2022-08-18T00:13:41.393Z,52.95
2022-08-18T00:16:08.055Z,53.12
2022-08-18T00:18:34.667Z,53.60
2022-08-18T00:21:02.261Z,53.96
2022-08-18T00:23:29.977Z,54.21
2022-08-18T00:25:59.595Z,53.70
2022-08-18T00:28:26.527Z,54.10
2022-08-18T00:30:53.834Z,54.14
2022-08-18T00:33:21.164Z,54.21
2022-08-18T00:35:47.921Z,54.28
2022-08-18T00:38:24.971Z,54.56
2022-08-18T00:40:54.602Z,54.21
2022-08-18T00:43:45.137Z,54.82
2022-08-18T00:46:18.294Z,55.21
2022-08-18T00:48:48.626Z,55.14
2022-08-18T00:51:29.160Z,55.57
2022-08-18T00:53:55.939Z,55.43
2022-08-18T00:56:28.574Z,55.77
2022-08-18T00:59:02.984Z,56.37
2022-08-18T01:01:32.925Z,56.43
2022-08-18T01:04:12.510Z,57.16
2022-08-18T01:06:44.898Z,57.18
2022-08-18T01:09:11.996Z,57.13
2022-08-18T01:11:39.401Z,57.30
2022-08-18T01:14:09.039Z,57.38
2022-08-18T01:16:57.349Z,57.80
2022-08-18T01:19:45.020Z,57.78
2022-08-18T01:22:21.371Z,58.05
2022-08-18T01:25:23.556Z,57.68
2022-08-18T01:27:54.186Z,58.03
2022-08-18T01:30:28.053Z,57.99
2022-08-18T01:32:55.359Z,57.72
2022-08-18T01:35:25.638Z,57.80
2022-08-18T01:37:54.037Z,57.36
2022-08-18T01:41:21.928Z,57.45
2022-08-18T01:43:10.361Z,57.32
2022-08-18T01:45:37.365Z,57.23
2022-08-18T01:48:04.933Z,57.47
2022-08-18T01:50:35.212Z,57.90
2022-08-18T01:53:05.437Z,57.84
2022-08-18T01:55:37.045Z,58.06
2022-08-18T01:58:04.775Z,58.22
2022-08-18T02:00:32.453Z,58.04
2022-08-18T02:03:02.603Z,58.37
2022-08-18T02:05:38.709Z,58.33
2022-08-18T02:08:07.192Z,58.39
2022-08-18T02:10:37.921Z,58.41
2022-08-18T02:13:05.357Z,58.70
2022-08-18T02:15:34.895Z,58.79
2022-08-18T02:18:01.787Z,58.31
2022-08-18T02:20:28.648Z,58.38
2022-08-18T02:22:55.307Z,58.74
2022-08-18T02:25:23.053Z,58.84
2022-08-18T02:27:50.436Z,58.40
2022-08-18T02:30:18.782Z,58.83
2022-08-18T02:32:45.525Z,59.19
2022-08-18T02:35:12.572Z,59.47
2022-08-18T02:37:42.192Z,59.46
2022-08-18T02:40:15.103Z,59.94
2022-08-18T02:42:43.765Z,59.63
2022-08-18T02:45:11.180Z,59.63
2022-08-18T02:47:37.789Z,59.26
2022-08-18T02:50:04.976Z,59.26
2022-08-18T02:52:34.538Z,59.74
2022-08-18T02:55:04.561Z,59.16
2022-08-18T02:57:32.206Z,59.12
2022-08-18T03:00:00.241Z,58.90
2022-08-18T03:02:26.950Z,59.39
2022-08-18T03:04:53.749Z,59.35
2022-08-18T03:07:20.440Z,59.10
2022-08-18T03:09:47.087Z,59.48
2022-08-18T03:12:13.687Z,64.31
2022-08-18T03:14:40.306Z,69.58
2022-08-18T03:17:09.022Z,68.12
2022-08-18T03:19:36.033Z,67.25
2022-08-18T03:22:03.569Z,66.89
2022-08-18T03:24:32.319Z,66.64
2022-08-18T03:27:01.624Z,66.56
2022-08-18T03:29:32.518Z,68.15
2022-08-18T03:32:04.038Z,69.27
2022-08-18T03:34:31.647Z,68.70
2022-08-18T03:36:58.835Z,68.79
2022-08-18T03:39:27.961Z,68.84
2022-08-18T03:41:58.353Z,69.28
2022-08-18T03:44:32.402Z,69.33
2022-08-18T03:47:00.970Z,70.17
2022-08-18T03:49:27.917Z,71.05
2022-08-18T03:51:55.568Z,71.23
2022-08-18T03:54:22.979Z,70.76
2022-08-18T03:56:49.849Z,70.85
2022-08-18T03:59:22.617Z,72.01
2022-08-18T04:01:51.591Z,72.32
2022-08-18T04:04:20.876Z,72.22
2022-08-18T04:06:54.847Z,72.11
2022-08-18T04:09:22.926Z,72.35
2022-08-18T04:11:49.691Z,72.41
2022-08-18T04:14:19.210Z,72.41
2022-08-18T04:16:46.934Z,71.41
2022-08-18T04:19:14.194Z,71.10
2022-08-18T04:21:53.721Z,69.73
2022-08-18T04:24:21.206Z,69.74
2022-08-18T04:26:48.664Z,70.39
2022-08-18T04:29:17.745Z,70.56
2022-08-18T04:31:44.687Z,71.02
2022-08-18T04:34:12.418Z,70.86
2022-08-18T04:36:40.110Z,69.96
2022-08-18T04:39:08.951Z,69.67
2022-08-18T04:41:39.763Z,69.86
2022-08-18T04:44:08.832Z,69.51
2022-08-18T04:46:47.797Z,68.61
2022-08-18T04:49:16.212Z,68.32
2022-08-18T04:52:34.112Z,68.29
2022-08-18T04:54:57.039Z,67.10
2022-08-18T04:57:24.048Z,67.02
2022-08-18T04:59:52.429Z,66.64
2022-08-18T05:02:21.100Z,66.60
2022-08-18T05:04:48.086Z,66.17
2022-08-18T05:07:22.488Z,65.25
2022-08-18T05:09:52.408Z,64.95
2022-08-18T05:12:28.883Z,65.21
2022-08-18T05:14:58.019Z,67.04
2022-08-18T05:17:29.968Z,67.14
2022-08-18T05:19:58.956Z,66.61
2022-08-18T05:22:30.421Z,67.26
2022-08-18T05:24:58.277Z,66.62
2022-08-18T05:27:25.126Z,66.15
2022-08-18T05:29:51.999Z,66.56
2022-08-18T05:32:37.248Z,66.45
2022-08-18T05:35:12.104Z,66.22
2022-08-18T05:37:48.075Z,66.32
2022-08-18T05:40:15.515Z,67.32
2022-08-18T05:42:45.625Z,67.06
2022-08-18T05:45:16.910Z,67.23
2022-08-18T05:47:43.683Z,67.64
2022-08-18T05:50:18.494Z,67.87
2022-08-18T05:53:13.305Z,68.48
2022-08-18T05:56:12.698Z,68.94
2022-08-18T05:58:45.966Z,69.82
2022-08-18T06:01:18.456Z,69.84
2022-08-18T06:04:23.716Z,70.09
2022-08-18T06:06:52.968Z,69.67
2022-08-18T06:09:36.782Z,69.51
2022-08-18T06:12:38.205Z,69.39
2022-08-18T06:15:24.634Z,69.58
2022-08-18T06:17:59.911Z,69.77
2022-08-18T06:21:04.939Z,68.83
2022-08-18T06:24:22.297Z,68.71
2022-08-18T06:27:10.207Z,69.31
2022-08-18T06:29:39.678Z,70.22
2022-08-18T06:32:28.356Z,71.31
2022-08-18T06:35:11.738Z,71.59
2022-08-18T06:38:09.083Z,71.97
2022-08-18T06:40:38.210Z,72.50
2022-08-18T06:43:10.070Z,72.09
2022-08-18T06:45:41.895Z,72.13
2022-08-18T06:48:43.979Z,73.82
2022-08-18T06:51:15.283Z,74.54
2022-08-18T06:53:54.317Z,74.71
2022-08-18T06:56:41.562Z,75.10
2022-08-18T06:59:26.150Z,75.34
2022-08-18T07:02:21.771Z,76.04
2022-08-18T07:05:20.490Z,75.65
2022-08-18T07:08:12.291Z,74.70
2022-08-18T07:10:51.926Z,73.90
2022-08-18T07:13:31.019Z,73.89
2022-08-18T07:16:34.488Z,74.63
2022-08-18T07:19:13.012Z,73.50
2022-08-18T07:21:47.699Z,74.42
2022-08-18T07:24:27.340Z,74.49
2022-08-18T07:27:07.956Z,73.43
2022-08-18T07:29:57.610Z,73.06
2022-08-18T07:32:30.346Z,73.03
2022-08-18T07:35:00.684Z,73.99
2022-08-18T07:37:56.334Z,74.15
2022-08-18T07:40:38.382Z,74.42
2022-08-18T07:43:24.033Z,73.05
2022-08-18T07:45:56.032Z,71.47
2022-08-18T07:48:40.851Z,69.82
2022-08-18T07:51:24.097Z,68.88
2022-08-18T07:54:01.901Z,67.62
2022-08-18T07:57:06.824Z,68.36
2022-08-18T07:59:59.688Z,67.06
2022-08-18T08:02:54.009Z,66.10
2022-08-18T08:05:56.400Z,65.72
2022-08-18T08:08:35.768Z,65.82
2022-08-18T08:11:37.547Z,65.57
2022-08-18T08:14:04.224Z,65.84
2022-08-18T08:16:44.495Z,67.56
2022-08-18T08:19:14.158Z,67.76
2022-08-18T08:21:52.867Z,66.88
2022-08-18T08:24:39.622Z,65.60
2022-08-18T08:27:51.458Z,65.33
2022-08-18T08:30:21.552Z,64.51
2022-08-18T08:33:17.565Z,65.53
2022-08-18T08:36:05.724Z,64.00
2022-08-18T08:38:47.739Z,64.06
2022-08-18T08:41:26.649Z,63.09
2022-08-18T08:44:06.392Z,62.24
2022-08-18T08:46:47.577Z,62.96
2022-08-18T08:49:42.631Z,62.63
2022-08-18T08:52:24.840Z,62.12
2022-08-18T08:55:03.180Z,61.91
2022-08-18T08:57:39.211Z,62.84
2022-08-18T09:00:09.090Z,61.23
2022-08-18T09:02:58.756Z,61.10
2022-08-18T09:05:29.871Z,61.16
2022-08-18T09:08:28.396Z,60.26
2022-08-18T09:11:12.196Z,60.05
2022-08-18T09:13:44.597Z,59.76
2022-08-18T09:16:41.409Z,59.44
2022-08-18T09:19:45.562Z,60.11
2022-08-18T09:22:24.629Z,59.41
2022-08-18T09:24:54.884Z,59.23
2022-08-18T09:28:11.803Z,60.24
2022-08-18T09:31:01.664Z,59.63
2022-08-18T09:34:21.429Z,59.78
2022-08-18T09:36:58.036Z,60.06
2022-08-18T09:39:56.636Z,59.92
2022-08-18T09:42:50.609Z,58.63
2022-08-18T09:45:34.378Z,58.86
2022-08-18T09:51:33.023Z,57.23
2022-08-18T09:54:20.850Z,57.39
2022-08-18T09:56:54.431Z,57.29
2022-08-18T09:59:35.168Z,56.68
2022-08-18T10:02:24.199Z,56.64
2022-08-18T10:05:20.436Z,55.25
2022-08-18T10:07:56.188Z,54.79
2022-08-18T10:14:02.860Z,54.60
2022-08-18T10:17:21.683Z,54.62
2022-08-18T10:20:04.718Z,54.69
2022-08-18T10:22:47.886Z,54.53
2022-08-18T10:25:46.446Z,54.36
2022-08-18T10:31:56.164Z,53.07
2022-08-18T10:34:51.947Z,52.64
2022-08-18T10:37:32.295Z,52.79
2022-08-18T10:40:08.166Z,52.49
2022-08-18T10:42:47.620Z,52.47
2022-08-18T10:45:28.311Z,52.24
2022-08-18T10:48:16.749Z,52.17
2022-08-18T10:51:05.471Z,52.58
2022-08-18T10:53:59.426Z,52.36
2022-08-18T10:56:33.755Z,53.16
2022-08-18T10:59:18.973Z,53.90
2022-08-18T11:02:30.940Z,53.78
2022-08-18T11:04:59.958Z,52.66
2022-08-18T11:07:34.735Z,51.52
2022-08-18T11:10:29.813Z,50.35
2022-08-18T11:13:24.472Z,50.23
2022-08-18T11:16:10.330Z,50.61
2022-08-18T11:18:43.168Z,50.44
2022-08-18T11:24:44.698Z,48.99
2022-08-18T11:27:22.727Z,49.86
2022-08-18T11:29:51.488Z,49.58
2022-08-18T11:32:32.773Z,49.68
2022-08-18T11:35:27.739Z,48.34
2022-08-18T11:38:01.395Z,48.23
2022-08-18T11:41:10.716Z,47.33
2022-08-18T11:43:40.752Z,47.55
2022-08-18T11:46:28.054Z,47.28
2022-08-18T11:48:57.253Z,46.86
2022-08-18T11:51:32.162Z,46.08
2022-08-18T11:54:12.731Z,46.11
2022-08-18T11:56:39.495Z,45.48
2022-08-18T11:59:07.747Z,45.33
2022-08-18T12:01:42.177Z,45.28
2022-08-18T12:04:37.603Z,45.19
2022-08-18T12:07:10.912Z,45.31
2022-08-18T12:10:19.449Z,45.14
2022-08-18T12:12:48.603Z,45.00
2022-08-18T12:15:24.094Z,45.08
2022-08-18T12:17:54.113Z,45.50
2022-08-18T12:20:21.865Z,45.20
2022-08-18T12:22:50.163Z,45.49
2022-08-18T12:25:25.381Z,45.23
2022-08-18T12:27:55.114Z,44.52
2022-08-18T12:30:27.471Z,44.19
2022-08-18T12:32:56.093Z,44.22
2022-08-18T12:35:32.784Z,44.17
2022-08-18T12:40:51.080Z,43.47
2022-08-18T12:43:18.413Z,43.48
2022-08-18T12:45:48.624Z,43.17
2022-08-18T12:48:15.471Z,42.96
2022-08-18T12:50:54.301Z,43.38
2022-08-18T12:53:30.709Z,42.60
2022-08-18T12:56:22.795Z,42.49
2022-08-18T12:58:52.786Z,42.12
2022-08-18T13:01:20.260Z,42.15
2022-08-18T13:04:11.011Z,42.02
2022-08-18T13:06:45.384Z,41.85
2022-08-18T13:09:34.882Z,41.69
2022-08-18T13:12:16.147Z,41.96
2022-08-18T13:14:43.655Z,42.04
2022-08-18T13:17:15.273Z,42.11
2022-08-18T13:19:57.699Z,41.76
2022-08-18T13:22:32.875Z,42.07
2022-08-18T13:25:01.801Z,41.87
2022-08-18T13:27:33.145Z,42.55
2022-08-18T13:30:16.701Z,42.00
2022-08-18T13:32:58.917Z,41.82
2022-08-18T13:35:29.792Z,41.88
2022-08-18T13:38:06.529Z,41.96
2022-08-18T13:40:46.980Z,41.82
2022-08-18T13:43:16.094Z,41.85
2022-08-18T13:45:46.893Z,41.92
2022-08-18T13:48:19.467Z,42.30
2022-08-18T13:50:46.520Z,42.51
2022-08-18T13:53:16.399Z,42.40
2022-08-18T13:55:43.483Z,42.68
2022-08-18T13:58:17.587Z,42.18
2022-08-18T14:00:52.343Z,42.41
2022-08-18T14:03:42.408Z,42.32
2022-08-18T14:06:13.230Z,42.43
2022-08-18T14:08:40.958Z,42.42
2022-08-18T14:11:09.078Z,42.67
2022-08-18T14:13:38.143Z,42.19
2022-08-18T14:16:10.501Z,42.31
2022-08-18T14:18:39.100Z,42.37
2022-08-18T14:21:24.940Z,42.25
2022-08-18T14:24:14.530Z,42.36
2022-08-18T14:26:50.196Z,42.83
2022-08-18T14:29:46.294Z,42.48
2022-08-18T14:32:06.627Z,41.87
2022-08-18T14:34:33.410Z,42.83
2022-08-18T14:37:00.031Z,42.65
2022-08-18T14:39:28.811Z,43.11
2022-08-18T14:41:58.571Z,42.65
2022-08-18T14:44:32.354Z,43.13
2022-08-18T14:47:02.425Z,43.09
2022-08-18T14:49:31.548Z,43.13
2022-08-18T14:52:01.336Z,43.51
2022-08-18T14:54:30.601Z,43.21
2022-08-18T14:57:01.701Z,42.99
2022-08-18T14:59:30.990Z,42.57
2022-08-18T15:02:06.215Z,42.44
2022-08-18T15:04:39.273Z,42.62
2022-08-18T15:07:25.648Z,43.01
2022-08-18T15:10:14.466Z,42.79
2022-08-18T15:12:41.990Z,43.23
2022-08-18T15:15:12.384Z,43.27
2022-08-18T15:17:44.584Z,42.99
2022-08-18T15:20:17.356Z,43.45
2022-08-18T15:23:04.762Z,43.13
2022-08-18T15:25:47.027Z,43.05
2022-08-18T15:28:26.227Z,42.95
2022-08-18T15:33:42.812Z,43.40
2022-08-18T15:36:10.253Z,43.59
2022-08-18T15:38:37.201Z,43.62
2022-08-18T15:41:06.358Z,43.46
2022-08-18T15:43:39.931Z,43.37
2022-08-18T15:46:14.056Z,43.97
2022-08-18T15:48:43.678Z,43.92
2022-08-18T15:51:11.927Z,43.97
2022-08-18T15:53:44.872Z,44.43
2022-08-18T15:56:21.929Z,44.86
2022-08-18T15:58:52.663Z,44.80
2022-08-18T16:01:32.410Z,44.45
2022-08-18T16:04:01.256Z,45.02
2022-08-18T16:06:32.429Z,44.85
2022-08-18T16:09:01.090Z,45.14
2022-08-18T16:11:29.803Z,45.18
2022-08-18T16:13:58.990Z,45.00
2022-08-18T16:16:35.781Z,44.80
2022-08-18T16:19:07.034Z,44.79
2022-08-18T16:21:40.414Z,45.27
2022-08-18T16:24:10.627Z,45.42
2022-08-18T16:26:41.472Z,45.56
2022-08-18T16:29:08.107Z,45.66
2022-08-18T16:31:34.751Z,45.50
2022-08-18T16:34:01.490Z,45.19
2022-08-18T16:36:28.289Z,44.65
2022-08-18T16:38:58.048Z,44.84
2022-08-18T16:41:26.330Z,45.36
2022-08-18T16:43:52.998Z,44.80
2022-08-18T16:46:26.480Z,44.27
2022-08-18T16:48:55.185Z,44.20
2022-08-18T16:51:25.449Z,44.84
2022-08-18T16:53:53.375Z,44.83
2022-08-18T16:56:26.614Z,44.74
2022-08-18T16:59:12.549Z,44.94
2022-08-18T17:01:58.887Z,45.17
2022-08-18T17:04:33.467Z,45.40
2022-08-18T17:07:04.999Z,45.02
2022-08-18T17:09:33.730Z,44.57
2022-08-18T17:12:01.238Z,44.31
2022-08-18T17:14:30.601Z,43.96
2022-08-18T17:16:58.621Z,43.95
2022-08-18T17:19:33.671Z,43.77
2022-08-18T17:22:02.277Z,43.82
2022-08-18T17:24:32.021Z,43.74
2022-08-18T17:27:26.535Z,43.47
2022-08-18T17:30:03.244Z,43.63
2022-08-18T17:32:50.185Z,43.71
2022-08-18T17:35:28.628Z,43.96
2022-08-18T17:38:57.144Z,44.14
2022-08-18T17:41:25.425Z,44.33
2022-08-18T17:43:55.662Z,44.66
2022-08-18T17:46:29.770Z,45.53
2022-08-18T17:49:10.054Z,46.21
2022-08-18T17:51:44.372Z,46.06
2022-08-18T17:54:26.720Z,45.95
2022-08-18T17:57:04.324Z,46.10
2022-08-18T18:00:17.291Z,46.22
2022-08-18T18:02:45.665Z,46.74
2022-08-18T18:05:20.738Z,47.19
2022-08-18T18:07:50.479Z,47.96
2022-08-18T18:10:23.199Z,48.78
2022-08-18T18:13:13.333Z,49.51
2022-08-18T18:15:49.156Z,49.52
2022-08-18T18:18:24.932Z,49.97
2022-08-18T18:21:22.265Z,50.25
2022-08-18T18:24:10.347Z,51.37
2022-08-18T18:26:44.877Z,51.41
2022-08-18T18:29:28.802Z,51.76
2022-08-18T18:32:01.938Z,52.30
2022-08-18T18:34:39.891Z,52.52
2022-08-18T18:37:28.965Z,53.32
2022-08-18T18:39:58.983Z,53.66
2022-08-18T18:42:29.645Z,54.01
2022-08-18T18:45:02.449Z,54.57
2022-08-18T18:47:50.078Z,55.13
2022-08-18T18:50:52.886Z,55.84
2022-08-18T18:53:32.794Z,55.99
2022-08-18T18:56:11.430Z,56.00
2022-08-18T18:58:51.408Z,56.13
2022-08-18T19:01:32.088Z,56.49
2022-08-18T19:04:19.223Z,56.97
2022-08-18T19:07:00.159Z,56.53
2022-08-18T19:09:38.201Z,57.02
2022-08-18T19:12:23.408Z,57.18
2022-08-18T19:15:00.833Z,57.79
2022-08-18T19:17:35.727Z,57.83
2022-08-18T19:20:17.388Z,58.35
2022-08-18T19:22:57.220Z,58.56
2022-08-18T19:25:29.763Z,58.42
2022-08-18T19:28:26.954Z,58.92
2022-08-18T19:30:58.381Z,59.73
2022-08-18T19:33:43.569Z,60.01
2022-08-18T19:36:21.948Z,60.39
2022-08-18T19:39:04.666Z,60.86
2022-08-18T19:41:47.918Z,61.00
2022-08-18T19:44:24.406Z,61.20
2022-08-18T19:46:54.598Z,61.66
2022-08-18T19:49:36.480Z,61.99
2022-08-18T19:52:47.910Z,62.15
2022-08-18T19:55:46.205Z,62.25
2022-08-18T19:58:22.741Z,62.59
2022-08-18T20:00:57.182Z,62.82
2022-08-18T20:03:52.516Z,62.71
2022-08-18T20:06:40.647Z,62.79
2022-08-18T20:09:32.723Z,63.14
2022-08-18T20:12:14.227Z,63.51
2022-08-18T20:14:49.001Z,63.85
2022-08-18T20:17:24.610Z,64.03
2022-08-18T20:20:15.425Z,64.58
2022-08-18T20:22:44.518Z,65.03
2022-08-18T20:25:19.992Z,64.96
2022-08-18T20:28:12.720Z,65.23
2022-08-18T20:30:52.715Z,65.62
2022-08-18T20:33:25.818Z,65.85
2022-08-18T20:36:08.125Z,66.01
2022-08-18T20:38:35.313Z,66.12
2022-08-18T20:41:27.592Z,66.38
2022-08-18T20:43:58.666Z,66.72
2022-08-18T20:46:44.656Z,66.47
2022-08-18T20:49:45.794Z,66.45
2022-08-18T20:52:37.819Z,66.70
2022-08-18T20:55:30.663Z,66.67
2022-08-18T20:58:08.264Z,66.90
2022-08-18T21:00:40.482Z,66.64
2022-08-18T21:03:13.060Z,66.55
2022-08-18T21:05:43.650Z,66.60
2022-08-18T21:08:16.690Z,66.42
2022-08-18T21:10:57.882Z,66.53
2022-08-18T21:13:40.509Z,66.49
2022-08-18T21:16:13.023Z,66.71
2022-08-18T21:18:55.247Z,66.75
2022-08-18T21:21:29.809Z,66.77
2022-08-18T21:24:02.708Z,67.10
2022-08-18T21:26:34.439Z,67.09
2022-08-18T21:29:11.209Z,67.07
2022-08-18T21:31:49.942Z,67.31
2022-08-18T21:34:29.411Z,67.19
2022-08-18T21:37:08.580Z,67.63
2022-08-18T21:39:47.989Z,67.76
2022-08-18T21:42:21.010Z,67.80
2022-08-18T21:44:51.532Z,67.99
2022-08-18T21:47:20.733Z,68.21
2022-08-18T21:50:11.650Z,68.11
2022-08-18T21:52:51.058Z,68.11
2022-08-18T21:55:35.651Z,68.17
2022-08-18T21:58:16.703Z,68.10
2022-08-18T22:01:07.964Z,67.98
2022-08-18T22:03:36.443Z,68.27
2022-08-18T22:06:33.593Z,68.35
2022-08-18T22:09:28.408Z,68.40
2022-08-18T22:12:51.392Z,68.63
2022-08-18T22:15:28.249Z,68.67
2022-08-18T22:18:01.008Z,68.67
2022-08-18T22:20:45.196Z,68.70
2022-08-18T22:23:30.843Z,68.81
2022-08-18T22:26:12.495Z,68.40
2022-08-18T22:29:20.994Z,68.93
2022-08-18T22:31:51.240Z,68.71
2022-08-18T22:34:27.911Z,68.87
2022-08-18T22:37:09.494Z,68.95
2022-08-18T22:39:49.769Z,68.61
2022-08-18T22:42:20.802Z,68.94
2022-08-18T22:44:49.025Z,68.81
2022-08-18T22:47:16.302Z,69.17
2022-08-18T22:49:47.502Z,69.44
2022-08-18T22:52:19.388Z,69.76
2022-08-18T22:54:46.437Z,69.52
2022-08-18T22:57:17.562Z,69.45
2022-08-18T22:59:49.686Z,69.71
2022-08-18T23:02:22.149Z,69.57
2022-08-18T23:04:49.222Z,69.45
2022-08-18T23:07:16.015Z,69.46
2022-08-18T23:09:42.726Z,69.44
2022-08-18T23:12:15.728Z,69.22
2022-08-18T23:14:46.257Z,69.11
2022-08-18T23:17:14.139Z,68.95
2022-08-18T23:19:40.975Z,69.31
2022-08-18T23:22:09.341Z,69.04
2022-08-18T23:24:40.355Z,68.90
2022-08-18T23:27:07.910Z,68.55
2022-08-18T23:29:36.572Z,68.71
2022-08-18T23:32:05.796Z,68.68
2022-08-18T23:34:34.851Z,68.52
2022-08-18T23:37:03.102Z,68.88
2022-08-18T23:39:31.800Z,69.77
2022-08-18T23:41:59.306Z,70.03
2022-08-18T23:44:28.050Z,69.96
2022-08-18T23:46:57.921Z,70.27
2022-08-18T23:49:26.250Z,70.34
2022-08-18T23:51:56.116Z,70.59
2022-08-18T23:54:26.940Z,70.36
2022-08-18T23:56:53.655Z,70.24
2022-08-18T23:59:22.942Z,70.65
